DLH401 KJFK-EDDF
Flight info
| Callsign | DLH401 |
|---|---|
| Flight time | N/A |
| Altitude | 37000 |
| Route | BETTE DCT ACK DCT KANNI N97B SUPRY/M081F390 DCT 46N050W 48N040W 50N030W 52N020W DCT LIMRI DCT XETBO/N0470F410 DCT ENJEX DCT ADHAV DCT AGCAT DCT AXNEF DCT ZIPWE DCT OZZIL DCT SAWPE Q63 CPT UL9 BIG L607 KONAN DCT KOK DCT SPI T180 NIVNU T847 IMCOM IMCOM1A |
| Aircraft | A343/H-SDE2E3FGHIJ4J5M1RWXY/LB1D1 |
Departure
| Time | 2026-05-05 07:27 |
|---|---|
| Airport | John F. Kennedy International Airport (KJFK) |
Arrival
| Time | N/A |
|---|---|
| Airport | Frankfurt Main Airport (EDDF) |
| Time | Latitude | Longitude | Altitude | Speed | Heading |
|---|---|---|---|---|---|
| 2026-05-05 06:51 | 40.64125 | -73.79219 | 29 ft | 0 kts | 326° |
| 2026-05-05 07:17 | 40.64105 | -73.79202 | 27 ft | 4 kts | 326° |
| 2026-05-05 07:17 | 40.64086 | -73.79185 | 28 ft | 2 kts | 326° |
| 2026-05-05 07:18 | 40.64068 | -73.79164 | 28 ft | 4 kts | 285° |
| 2026-05-05 07:18 | 40.64071 | -73.79141 | 28 ft | 2 kts | 224° |
| 2026-05-05 07:18 | 40.64056 | -73.79160 | 28 ft | 4 kts | 224° |
| 2026-05-05 07:18 | 40.64036 | -73.79185 | 28 ft | 4 kts | 224° |
| 2026-05-05 07:19 | 40.64028 | -73.79195 | 28 ft | 0 kts | 224° |
| 2026-05-05 07:21 | 40.64023 | -73.79202 | 28 ft | 4 kts | 223° |
| 2026-05-05 07:21 | 40.63975 | -73.79260 | 30 ft | 15 kts | 224° |
| 2026-05-05 07:21 | 40.63926 | -73.79370 | 29 ft | 13 kts | 277° |
| 2026-05-05 07:21 | 40.63964 | -73.79469 | 27 ft | 13 kts | 300° |
| 2026-05-05 07:22 | 40.64016 | -73.79582 | 30 ft | 16 kts | 301° |
| 2026-05-05 07:22 | 40.64075 | -73.79712 | 28 ft | 17 kts | 301° |
| 2026-05-05 07:22 | 40.64142 | -73.79849 | 28 ft | 19 kts | 308° |
| 2026-05-05 07:22 | 40.64243 | -73.79985 | 28 ft | 21 kts | 310° |
| 2026-05-05 07:23 | 40.64322 | -73.80150 | 28 ft | 22 kts | 301° |
| 2026-05-05 07:23 | 40.64402 | -73.80327 | 29 ft | 22 kts | 300° |
| 2026-05-05 07:23 | 40.64480 | -73.80502 | 26 ft | 22 kts | 301° |
| 2026-05-05 07:23 | 40.64556 | -73.80666 | 28 ft | 20 kts | 302° |
| 2026-05-05 07:24 | 40.64623 | -73.80817 | 29 ft | 19 kts | 301° |
| 2026-05-05 07:24 | 40.64687 | -73.80960 | 32 ft | 18 kts | 301° |
| 2026-05-05 07:24 | 40.64759 | -73.81115 | 29 ft | 22 kts | 301° |
| 2026-05-05 07:24 | 40.64837 | -73.81286 | 28 ft | 22 kts | 301° |
| 2026-05-05 07:25 | 40.64916 | -73.81458 | 27 ft | 16 kts | 300° |
| 2026-05-05 07:25 | 40.64940 | -73.81536 | 26 ft | 8 kts | 268° |
| 2026-05-05 07:25 | 40.64912 | -73.81590 | 28 ft | 7 kts | 219° |
| 2026-05-05 07:25 | 40.64866 | -73.81627 | 29 ft | 8 kts | 211° |
| 2026-05-05 07:26 | 40.64823 | -73.81634 | 29 ft | 5 kts | 152° |
| 2026-05-05 07:26 | 40.64798 | -73.81588 | 29 ft | 8 kts | 119° |
| 2026-05-05 07:26 | 40.64757 | -73.81497 | 31 ft | 26 kts | 121° |
| 2026-05-05 07:26 | 40.64565 | -73.81071 | 32 ft | 81 kts | 121° |
| 2026-05-05 07:27 | 40.64189 | -73.80240 | 28 ft | 127 kts | 121° |
| 2026-05-05 07:27 | 40.63675 | -73.79101 | 29 ft | 164 kts | 121° |
| 2026-05-05 07:27 | 40.63059 | -73.77765 | 407 ft | 171 kts | 124° |
| 2026-05-05 07:27 | 40.62608 | -73.76286 | 879 ft | 180 kts | 106° |
| 2026-05-05 07:28 | 40.62391 | -73.74575 | 1215 ft | 202 kts | 102° |
| 2026-05-05 07:28 | 40.62269 | -73.72597 | 1456 ft | 230 kts | 99° |
| 2026-05-05 07:28 | 40.62169 | -73.70407 | 1706 ft | 260 kts | 98° |
| 2026-05-05 07:28 | 40.62032 | -73.67879 | 2162 ft | 280 kts | 98° |
| 2026-05-05 07:29 | 40.61864 | -73.65293 | 2960 ft | 285 kts | 99° |
| 2026-05-05 07:29 | 40.61669 | -73.62713 | 3816 ft | 289 kts | 99° |
| 2026-05-05 07:29 | 40.61445 | -73.60064 | 4676 ft | 293 kts | 100° |
| 2026-05-05 07:29 | 40.61205 | -73.57393 | 5535 ft | 294 kts | 99° |
| 2026-05-05 07:30 | 40.60958 | -73.54707 | 6451 ft | 293 kts | 99° |
| 2026-05-05 07:30 | 40.60457 | -73.49319 | 8030 ft | 301 kts | 99° |
| 2026-05-05 07:30 | 40.60204 | -73.46598 | 8778 ft | 305 kts | 98° |
| 2026-05-05 07:31 | 40.59947 | -73.43811 | 9559 ft | 308 kts | 98° |
| 2026-05-05 07:31 | 40.59686 | -73.40985 | 10230 ft | 314 kts | 98° |
| 2026-05-05 07:31 | 40.59414 | -73.38054 | 10543 ft | 331 kts | 98° |
| 2026-05-05 07:31 | 40.59125 | -73.34963 | 10809 ft | 349 kts | 98° |
| 2026-05-05 07:32 | 40.58823 | -73.31722 | 11065 ft | 366 kts | 98° |
| 2026-05-05 07:32 | 40.58510 | -73.28366 | 11307 ft | 381 kts | 98° |
| 2026-05-05 07:32 | 40.58181 | -73.24839 | 11684 ft | 392 kts | 98° |
| 2026-05-05 07:32 | 40.57844 | -73.21239 | 12214 ft | 399 kts | 98° |
| 2026-05-05 07:33 | 40.57502 | -73.17594 | 12791 ft | 404 kts | 98° |
| 2026-05-05 07:33 | 40.57155 | -73.13901 | 13409 ft | 409 kts | 98° |
| 2026-05-05 07:33 | 40.56801 | -73.10164 | 13998 ft | 413 kts | 98° |
| 2026-05-05 07:33 | 40.56466 | -73.06427 | 14566 ft | 417 kts | 96° |
| 2026-05-05 07:34 | 40.56394 | -73.02602 | 15151 ft | 421 kts | 88° |
| 2026-05-05 07:34 | 40.56763 | -72.98769 | 15735 ft | 424 kts | 78° |
| 2026-05-05 07:34 | 40.57499 | -72.94995 | 16319 ft | 428 kts | 74° |
| 2026-05-05 07:34 | 40.58381 | -72.91251 | 16925 ft | 430 kts | 71° |
| 2026-05-05 07:35 | 40.59343 | -72.87508 | 17506 ft | 433 kts | 71° |
| 2026-05-05 07:35 | 40.60340 | -72.83748 | 18070 ft | 436 kts | 70° |
| 2026-05-05 07:35 | 40.61345 | -72.79964 | 18601 ft | 439 kts | 71° |
| 2026-05-05 07:35 | 40.62348 | -72.76145 | 19099 ft | 442 kts | 71° |
| 2026-05-05 07:36 | 40.63334 | -72.72345 | 19621 ft | 444 kts | 71° |
| 2026-05-05 07:36 | 40.64326 | -72.68479 | 20115 ft | 447 kts | 71° |
| 2026-05-05 07:36 | 40.65318 | -72.64583 | 20632 ft | 449 kts | 71° |
| 2026-05-05 07:36 | 40.66313 | -72.60656 | 21124 ft | 452 kts | 71° |
| 2026-05-05 07:37 | 40.67313 | -72.56701 | 21576 ft | 455 kts | 71° |
| 2026-05-05 07:37 | 40.68303 | -72.52780 | 22061 ft | 458 kts | 71° |
| 2026-05-05 07:37 | 40.69309 | -72.48790 | 22529 ft | 460 kts | 71° |
| 2026-05-05 07:37 | 40.70324 | -72.44761 | 22987 ft | 462 kts | 71° |
| 2026-05-05 07:38 | 40.71342 | -72.40718 | 23414 ft | 465 kts | 71° |
| 2026-05-05 07:38 | 40.72360 | -72.36663 | 23821 ft | 467 kts | 71° |
| 2026-05-05 07:38 | 40.73373 | -72.32624 | 24170 ft | 470 kts | 71° |
| 2026-05-05 07:38 | 40.74403 | -72.28508 | 24521 ft | 472 kts | 71° |
| 2026-05-05 07:39 | 40.75435 | -72.24377 | 24872 ft | 474 kts | 71° |
| 2026-05-05 07:39 | 40.76471 | -72.20223 | 25208 ft | 477 kts | 71° |
| 2026-05-05 07:39 | 40.77511 | -72.16047 | 25545 ft | 479 kts | 71° |
| 2026-05-05 07:39 | 40.78540 | -72.11910 | 25888 ft | 481 kts | 71° |
| 2026-05-05 07:40 | 40.79586 | -72.07691 | 26169 ft | 484 kts | 71° |
| 2026-05-05 07:40 | 40.80639 | -72.03443 | 26451 ft | 487 kts | 71° |
| 2026-05-05 07:40 | 40.81694 | -71.99174 | 26782 ft | 489 kts | 71° |
| 2026-05-05 07:40 | 40.82735 | -71.94956 | 27094 ft | 491 kts | 71° |
| 2026-05-05 07:41 | 40.83794 | -71.90659 | 27403 ft | 492 kts | 71° |
| 2026-05-05 07:41 | 40.84853 | -71.86351 | 27707 ft | 494 kts | 71° |
| 2026-05-05 07:41 | 40.85916 | -71.82020 | 28006 ft | 496 kts | 71° |
| 2026-05-05 07:41 | 40.86981 | -71.77672 | 28285 ft | 498 kts | 71° |
| 2026-05-05 07:42 | 40.88050 | -71.73301 | 28569 ft | 500 kts | 71° |
| 2026-05-05 07:42 | 40.89123 | -71.68904 | 28850 ft | 502 kts | 71° |
| 2026-05-05 07:42 | 40.90194 | -71.64507 | 29137 ft | 503 kts | 71° |
| 2026-05-05 07:42 | 40.91251 | -71.60159 | 29523 ft | 502 kts | 71° |
| 2026-05-05 07:43 | 40.92318 | -71.55761 | 29858 ft | 503 kts | 71° |
| 2026-05-05 07:43 | 40.93389 | -71.51338 | 30136 ft | 503 kts | 71° |
| 2026-05-05 07:43 | 40.94454 | -71.46934 | 30469 ft | 502 kts | 71° |
| 2026-05-05 07:43 | 40.95515 | -71.42534 | 30834 ft | 500 kts | 71° |
| 2026-05-05 07:44 | 40.96568 | -71.38163 | 31190 ft | 498 kts | 70° |
| 2026-05-05 07:44 | 40.97602 | -71.33862 | 31516 ft | 496 kts | 70° |
| 2026-05-05 07:44 | 40.98646 | -71.29510 | 31839 ft | 495 kts | 70° |
| 2026-05-05 07:44 | 40.99687 | -71.25161 | 32173 ft | 493 kts | 70° |
| 2026-05-05 07:45 | 41.00722 | -71.20834 | 32487 ft | 492 kts | 70° |
| 2026-05-05 07:45 | 41.01750 | -71.16524 | 32796 ft | 490 kts | 70° |
| 2026-05-05 07:45 | 41.02779 | -71.12205 | 33105 ft | 489 kts | 70° |
| 2026-05-05 07:45 | 41.03798 | -71.07916 | 33409 ft | 488 kts | 70° |
| 2026-05-05 07:46 | 41.04807 | -71.03666 | 33685 ft | 487 kts | 70° |
| 2026-05-05 07:46 | 41.05824 | -70.99370 | 33957 ft | 486 kts | 70° |
| 2026-05-05 07:46 | 41.06835 | -70.95094 | 34183 ft | 485 kts | 70° |
| 2026-05-05 07:46 | 41.07845 | -70.90814 | 34349 ft | 486 kts | 70° |
| 2026-05-05 07:47 | 41.08841 | -70.86582 | 34509 ft | 487 kts | 70° |
| 2026-05-05 07:47 | 41.09850 | -70.82294 | 34685 ft | 487 kts | 70° |
| 2026-05-05 07:47 | 41.10861 | -70.77982 | 34846 ft | 488 kts | 70° |
| 2026-05-05 07:47 | 41.11873 | -70.73662 | 35007 ft | 489 kts | 70° |
| 2026-05-05 07:48 | 41.12539 | -70.70813 | 35115 ft | 489 kts | 70° |
| 2026-05-05 07:48 | 41.13875 | -70.65085 | 35302 ft | 490 kts | 70° |
| 2026-05-05 07:48 | 41.14882 | -70.60760 | 35474 ft | 490 kts | 70° |
| 2026-05-05 07:48 | 41.15888 | -70.56430 | 35625 ft | 491 kts | 70° |
| 2026-05-05 07:49 | 41.17560 | -70.49214 | 35876 ft | 492 kts | 70° |
| 2026-05-05 07:49 | 41.18893 | -70.43448 | 36055 ft | 493 kts | 70° |
| 2026-05-05 07:49 | 41.19573 | -70.40499 | 36162 ft | 493 kts | 70° |
| 2026-05-05 07:50 | 41.20565 | -70.36194 | 36284 ft | 493 kts | 70° |
| 2026-05-05 07:50 | 41.21570 | -70.31821 | 36431 ft | 494 kts | 70° |
| 2026-05-05 07:50 | 41.22576 | -70.27435 | 36569 ft | 494 kts | 70° |
| 2026-05-05 07:50 | 41.23578 | -70.23056 | 36704 ft | 495 kts | 70° |
| 2026-05-05 07:51 | 41.24581 | -70.18669 | 36836 ft | 495 kts | 70° |
| 2026-05-05 07:51 | 41.25570 | -70.14332 | 36949 ft | 496 kts | 70° |
| 2026-05-05 07:51 | 41.27613 | -70.05525 | 36995 ft | 497 kts | 66° |
| 2026-05-05 07:52 | 41.30689 | -69.97433 | 37001 ft | 490 kts | 56° |
| 2026-05-05 07:52 | 41.34245 | -69.89685 | 36999 ft | 489 kts | 54° |
| 2026-05-05 07:53 | 41.37850 | -69.82030 | 37003 ft | 490 kts | 54° |
| 2026-05-05 07:53 | 41.41468 | -69.74313 | 37030 ft | 491 kts | 54° |
| 2026-05-05 07:54 | 41.45055 | -69.66605 | 37024 ft | 491 kts | 54° |
| 2026-05-05 07:54 | 41.48654 | -69.58834 | 37008 ft | 491 kts | 54° |
| 2026-05-05 07:55 | 41.52247 | -69.51056 | 37022 ft | 491 kts | 54° |
| 2026-05-05 07:55 | 41.55823 | -69.43294 | 37018 ft | 492 kts | 54° |
| 2026-05-05 07:56 | 41.59411 | -69.35488 | 37013 ft | 493 kts | 54° |
| 2026-05-05 07:56 | 41.62976 | -69.27714 | 37005 ft | 493 kts | 54° |
| 2026-05-05 07:57 | 41.66559 | -69.19876 | 37008 ft | 493 kts | 54° |
| 2026-05-05 07:57 | 41.70135 | -69.12038 | 37016 ft | 493 kts | 54° |
| 2026-05-05 07:58 | 41.73707 | -69.04186 | 37005 ft | 493 kts | 54° |
| 2026-05-05 07:58 | 41.77253 | -68.96371 | 37012 ft | 493 kts | 54° |
| 2026-05-05 07:59 | 41.80819 | -68.88489 | 37005 ft | 493 kts | 54° |
| 2026-05-05 07:59 | 41.84358 | -68.80650 | 37017 ft | 493 kts | 54° |
| 2026-05-05 08:00 | 41.87912 | -68.72753 | 37010 ft | 493 kts | 54° |
| 2026-05-05 08:00 | 41.91459 | -68.64852 | 37009 ft | 493 kts | 55° |
| 2026-05-05 08:01 | 41.95001 | -68.56944 | 37009 ft | 493 kts | 55° |
| 2026-05-05 08:01 | 41.98515 | -68.49077 | 37015 ft | 494 kts | 55° |
| 2026-05-05 08:02 | 42.02048 | -68.41148 | 37010 ft | 494 kts | 55° |
| 2026-05-05 08:02 | 42.05567 | -68.33227 | 37002 ft | 494 kts | 55° |
| 2026-05-05 08:03 | 42.09090 | -68.25275 | 37008 ft | 494 kts | 55° |
| 2026-05-05 08:03 | 42.12614 | -68.17301 | 37015 ft | 494 kts | 55° |
| 2026-05-05 08:04 | 42.16119 | -68.09351 | 37011 ft | 495 kts | 55° |
| 2026-05-05 08:04 | 42.19636 | -68.01348 | 37009 ft | 495 kts | 55° |
| 2026-05-05 08:05 | 42.23126 | -67.93386 | 37000 ft | 495 kts | 55° |
| 2026-05-05 08:05 | 42.26633 | -67.85364 | 37009 ft | 495 kts | 55° |
| 2026-05-05 08:06 | 42.29963 | -67.77728 | 37006 ft | 495 kts | 55° |
| 2026-05-05 08:06 | 42.33458 | -67.69692 | 37000 ft | 495 kts | 56° |
| 2026-05-05 08:07 | 42.36942 | -67.61658 | 37004 ft | 495 kts | 56° |
| 2026-05-05 08:07 | 42.40401 | -67.53662 | 36997 ft | 495 kts | 56° |
| 2026-05-05 08:08 | 42.43876 | -67.45607 | 37001 ft | 496 kts | 56° |
| 2026-05-05 08:08 | 42.47355 | -67.37521 | 37005 ft | 497 kts | 56° |
| 2026-05-05 08:09 | 42.50827 | -67.29427 | 36996 ft | 497 kts | 56° |
| 2026-05-05 08:09 | 42.54292 | -67.21328 | 37004 ft | 497 kts | 56° |
| 2026-05-05 08:10 | 42.57757 | -67.13206 | 37012 ft | 498 kts | 56° |
| 2026-05-05 08:10 | 42.61222 | -67.05064 | 37004 ft | 498 kts | 56° |
| 2026-05-05 08:11 | 42.64245 | -66.96581 | 37009 ft | 502 kts | 65° |
| 2026-05-05 08:11 | 42.66709 | -66.87686 | 37010 ft | 503 kts | 66° |
| 2026-05-05 08:12 | 42.69075 | -66.78739 | 37009 ft | 504 kts | 67° |
| 2026-05-05 08:12 | 42.71438 | -66.69764 | 37010 ft | 504 kts | 67° |
| 2026-05-05 08:13 | 42.73808 | -66.60779 | 37033 ft | 504 kts | 67° |
| 2026-05-05 08:13 | 42.76176 | -66.51797 | 37012 ft | 504 kts | 67° |
| 2026-05-05 08:14 | 42.78522 | -66.42871 | 37018 ft | 504 kts | 67° |
| 2026-05-05 08:14 | 42.80876 | -66.33877 | 37012 ft | 504 kts | 67° |
| 2026-05-05 08:15 | 42.83225 | -66.24867 | 37012 ft | 505 kts | 67° |
| 2026-05-05 08:15 | 42.85569 | -66.15841 | 37014 ft | 506 kts | 67° |
| 2026-05-05 08:16 | 42.87908 | -66.06799 | 37013 ft | 506 kts | 67° |
| 2026-05-05 08:16 | 42.90241 | -65.97748 | 37016 ft | 506 kts | 67° |
| 2026-05-05 08:17 | 42.92565 | -65.88693 | 37015 ft | 506 kts | 67° |
| 2026-05-05 08:17 | 42.94883 | -65.79632 | 37039 ft | 506 kts | 67° |
| 2026-05-05 08:18 | 42.97199 | -65.70543 | 37012 ft | 507 kts | 67° |
| 2026-05-05 08:18 | 42.99510 | -65.61439 | 37018 ft | 507 kts | 67° |
| 2026-05-05 08:19 | 43.01815 | -65.52322 | 37015 ft | 507 kts | 68° |
| 2026-05-05 08:19 | 43.04111 | -65.43203 | 37015 ft | 507 kts | 68° |
| 2026-05-05 08:20 | 43.06385 | -65.34137 | 37013 ft | 508 kts | 68° |
| 2026-05-05 08:20 | 43.08671 | -65.24992 | 37012 ft | 509 kts | 68° |
| 2026-05-05 08:21 | 43.10954 | -65.15820 | 37018 ft | 510 kts | 68° |
| 2026-05-05 08:21 | 43.13232 | -65.06631 | 37015 ft | 510 kts | 68° |
| 2026-05-05 08:22 | 43.15503 | -64.97431 | 37028 ft | 510 kts | 68° |
| 2026-05-05 08:22 | 43.17768 | -64.88224 | 37017 ft | 510 kts | 68° |
| 2026-05-05 08:23 | 43.20026 | -64.79008 | 37023 ft | 510 kts | 68° |
| 2026-05-05 08:23 | 43.22282 | -64.69761 | 37020 ft | 511 kts | 68° |
| 2026-05-05 08:24 | 43.24517 | -64.60562 | 37020 ft | 512 kts | 68° |
| 2026-05-05 08:24 | 43.26759 | -64.51298 | 37020 ft | 512 kts | 68° |
| 2026-05-05 08:25 | 43.28991 | -64.42036 | 37022 ft | 512 kts | 68° |
| 2026-05-05 08:25 | 43.31222 | -64.32744 | 37019 ft | 512 kts | 68° |
| 2026-05-05 08:26 | 43.33442 | -64.23456 | 37017 ft | 513 kts | 69° |
| 2026-05-05 08:26 | 43.35661 | -64.14137 | 37036 ft | 513 kts | 69° |
| 2026-05-05 08:27 | 43.37871 | -64.04815 | 37020 ft | 513 kts | 69° |
| 2026-05-05 08:27 | 43.40075 | -63.95481 | 37025 ft | 513 kts | 69° |
| 2026-05-05 08:28 | 43.42270 | -63.86143 | 37021 ft | 513 kts | 69° |
| 2026-05-05 08:28 | 43.44458 | -63.76799 | 37023 ft | 513 kts | 69° |
| 2026-05-05 08:29 | 43.46641 | -63.67436 | 37027 ft | 514 kts | 69° |
| 2026-05-05 08:30 | 43.49906 | -63.53361 | 37019 ft | 514 kts | 69° |
| 2026-05-05 08:30 | 43.52072 | -63.43971 | 37021 ft | 514 kts | 69° |
| 2026-05-05 08:31 | 43.54230 | -63.34573 | 37024 ft | 514 kts | 69° |
| 2026-05-05 08:31 | 43.56367 | -63.25230 | 37022 ft | 514 kts | 69° |
| 2026-05-05 08:32 | 43.58510 | -63.15823 | 37020 ft | 514 kts | 69° |
| 2026-05-05 08:32 | 43.60646 | -63.06402 | 37022 ft | 514 kts | 69° |
| 2026-05-05 08:33 | 43.62772 | -62.96987 | 37023 ft | 514 kts | 69° |
| 2026-05-05 08:33 | 43.64892 | -62.87555 | 37028 ft | 514 kts | 69° |
| 2026-05-05 08:34 | 43.67009 | -62.78100 | 37023 ft | 515 kts | 69° |
| 2026-05-05 08:34 | 43.69116 | -62.68642 | 37025 ft | 515 kts | 70° |
| 2026-05-05 08:35 | 43.71219 | -62.59167 | 37021 ft | 517 kts | 70° |
| 2026-05-05 08:35 | 43.73320 | -62.49655 | 37026 ft | 517 kts | 70° |
| 2026-05-05 08:36 | 43.75416 | -62.40123 | 37023 ft | 518 kts | 70° |
| 2026-05-05 08:36 | 43.77503 | -62.30586 | 37024 ft | 518 kts | 70° |
| 2026-05-05 08:37 | 43.79584 | -62.21038 | 37025 ft | 518 kts | 70° |
| 2026-05-05 08:37 | 43.81657 | -62.11483 | 37024 ft | 519 kts | 70° |
| 2026-05-05 08:38 | 43.83728 | -62.01895 | 37034 ft | 520 kts | 71° |
| 2026-05-05 08:38 | 43.85792 | -61.92290 | 37025 ft | 521 kts | 71° |
| 2026-05-05 08:39 | 43.87837 | -61.82734 | 37034 ft | 521 kts | 71° |
| 2026-05-05 08:39 | 43.89888 | -61.73105 | 37031 ft | 521 kts | 71° |
| 2026-05-05 08:40 | 43.91930 | -61.63471 | 37029 ft | 521 kts | 71° |
| 2026-05-05 08:40 | 43.93968 | -61.53821 | 37040 ft | 522 kts | 71° |
| 2026-05-05 08:41 | 43.96005 | -61.44122 | 37031 ft | 523 kts | 71° |
| 2026-05-05 08:41 | 43.98032 | -61.34423 | 37032 ft | 523 kts | 71° |
| 2026-05-05 08:42 | 44.00051 | -61.24717 | 37029 ft | 523 kts | 71° |
| 2026-05-05 08:42 | 44.02064 | -61.14995 | 37055 ft | 523 kts | 72° |
| 2026-05-05 08:43 | 44.04068 | -61.05275 | 37036 ft | 524 kts | 72° |
| 2026-05-05 08:43 | 44.06069 | -60.95518 | 37036 ft | 525 kts | 72° |
| 2026-05-05 08:44 | 44.08061 | -60.85758 | 37032 ft | 525 kts | 72° |
| 2026-05-05 08:44 | 44.10051 | -60.75959 | 37037 ft | 525 kts | 72° |
| 2026-05-05 08:45 | 44.12015 | -60.66244 | 37036 ft | 525 kts | 72° |
| 2026-05-05 08:45 | 44.13984 | -60.56453 | 37033 ft | 525 kts | 72° |
| 2026-05-05 08:46 | 44.15950 | -60.46636 | 37038 ft | 527 kts | 73° |
| 2026-05-05 08:46 | 44.17911 | -60.36792 | 37037 ft | 528 kts | 73° |
| 2026-05-05 08:47 | 44.19864 | -60.26932 | 37049 ft | 528 kts | 73° |
| 2026-05-05 08:47 | 44.21809 | -60.17071 | 37036 ft | 528 kts | 73° |
| 2026-05-05 08:48 | 44.23746 | -60.07196 | 37035 ft | 528 kts | 73° |
| 2026-05-05 08:48 | 44.25675 | -59.97315 | 37019 ft | 528 kts | 74° |
| 2026-05-05 08:49 | 44.27599 | -59.87412 | 37033 ft | 530 kts | 74° |
| 2026-05-05 08:49 | 44.29522 | -59.77460 | 37040 ft | 531 kts | 74° |
| 2026-05-05 08:50 | 44.31436 | -59.67499 | 37029 ft | 531 kts | 74° |
| 2026-05-05 08:50 | 44.33344 | -59.57522 | 37028 ft | 531 kts | 74° |
| 2026-05-05 08:51 | 44.35242 | -59.47547 | 37033 ft | 531 kts | 74° |
| 2026-05-05 08:51 | 44.37132 | -59.37562 | 37041 ft | 533 kts | 75° |
| 2026-05-05 08:52 | 44.39021 | -59.27528 | 37028 ft | 536 kts | 75° |
| 2026-05-05 08:52 | 44.40899 | -59.17497 | 37034 ft | 536 kts | 75° |
| 2026-05-05 08:53 | 44.42472 | -59.09054 | 37029 ft | 536 kts | 75° |
| 2026-05-05 08:53 | 44.44344 | -58.98962 | 37024 ft | 536 kts | 75° |
| 2026-05-05 08:54 | 44.46206 | -58.88861 | 37034 ft | 536 kts | 75° |
| 2026-05-05 08:54 | 44.48062 | -58.78747 | 37027 ft | 538 kts | 76° |
| 2026-05-05 08:55 | 44.49914 | -58.68592 | 37031 ft | 539 kts | 76° |
| 2026-05-05 08:55 | 44.51747 | -58.58490 | 37030 ft | 539 kts | 76° |
| 2026-05-05 08:56 | 44.53584 | -58.48306 | 37043 ft | 539 kts | 76° |
| 2026-05-05 08:56 | 44.55413 | -58.38112 | 37036 ft | 540 kts | 76° |
| 2026-05-05 08:57 | 44.57236 | -58.27900 | 37015 ft | 540 kts | 76° |
| 2026-05-05 08:57 | 44.59054 | -58.17649 | 37031 ft | 543 kts | 76° |
| 2026-05-05 08:58 | 44.60871 | -58.07348 | 37026 ft | 543 kts | 76° |
| 2026-05-05 08:58 | 44.62679 | -57.97042 | 37023 ft | 543 kts | 76° |
| 2026-05-05 08:59 | 44.64477 | -57.86730 | 37023 ft | 544 kts | 77° |
| 2026-05-05 08:59 | 44.66266 | -57.76413 | 37024 ft | 544 kts | 77° |
| 2026-05-05 09:00 | 44.68045 | -57.66093 | 37013 ft | 544 kts | 77° |
| 2026-05-05 09:00 | 44.69816 | -57.55759 | 37029 ft | 544 kts | 77° |
| 2026-05-05 09:01 | 44.71578 | -57.45415 | 37036 ft | 544 kts | 77° |
| 2026-05-05 09:01 | 44.73331 | -57.35066 | 37015 ft | 544 kts | 77° |
| 2026-05-05 09:02 | 44.75076 | -57.24702 | 37015 ft | 544 kts | 77° |
| 2026-05-05 09:02 | 44.76808 | -57.14352 | 37025 ft | 544 kts | 77° |
| 2026-05-05 09:03 | 44.78524 | -57.04031 | 37021 ft | 546 kts | 77° |
| 2026-05-05 09:03 | 44.80248 | -56.93608 | 37024 ft | 546 kts | 77° |
| 2026-05-05 09:04 | 44.81960 | -56.83189 | 37018 ft | 546 kts | 77° |
| 2026-05-05 09:04 | 44.83663 | -56.72763 | 37021 ft | 546 kts | 77° |
| 2026-05-05 09:05 | 44.85357 | -56.62326 | 37026 ft | 546 kts | 77° |
| 2026-05-05 09:05 | 44.87041 | -56.51885 | 37023 ft | 547 kts | 77° |
| 2026-05-05 09:06 | 44.88719 | -56.41420 | 37025 ft | 548 kts | 77° |
| 2026-05-05 09:06 | 44.90389 | -56.30938 | 37021 ft | 548 kts | 78° |
| 2026-05-05 09:07 | 44.92048 | -56.20457 | 37025 ft | 547 kts | 78° |
| 2026-05-05 09:07 | 44.93697 | -56.09973 | 37022 ft | 547 kts | 78° |
| 2026-05-05 09:08 | 44.95336 | -55.99485 | 36997 ft | 547 kts | 78° |
| 2026-05-05 09:08 | 44.96968 | -55.88976 | 37022 ft | 548 kts | 78° |
| 2026-05-05 09:09 | 44.98580 | -55.78530 | 37026 ft | 549 kts | 78° |
| 2026-05-05 09:09 | 45.00195 | -55.67989 | 37018 ft | 548 kts | 78° |
| 2026-05-05 09:10 | 45.01796 | -55.57481 | 37021 ft | 547 kts | 78° |
| 2026-05-05 09:10 | 45.03388 | -55.46951 | 37023 ft | 547 kts | 79° |
| 2026-05-05 09:11 | 45.04972 | -55.36413 | 37019 ft | 548 kts | 79° |
| 2026-05-05 09:11 | 45.06548 | -55.25852 | 37042 ft | 549 kts | 79° |
| 2026-05-05 09:12 | 45.08116 | -55.15282 | 37024 ft | 549 kts | 79° |
| 2026-05-05 09:12 | 45.09672 | -55.04709 | 37030 ft | 548 kts | 79° |
| 2026-05-05 09:13 | 45.11217 | -54.94148 | 37029 ft | 548 kts | 79° |
| 2026-05-05 09:13 | 45.12743 | -54.83641 | 36989 ft | 548 kts | 80° |
| 2026-05-05 09:14 | 45.14272 | -54.73044 | 37031 ft | 550 kts | 80° |
| 2026-05-05 09:14 | 45.15795 | -54.62414 | 37034 ft | 551 kts | 80° |
| 2026-05-05 09:15 | 45.17308 | -54.51778 | 37034 ft | 551 kts | 80° |
| 2026-05-05 09:15 | 45.18812 | -54.41130 | 37025 ft | 550 kts | 81° |
| 2026-05-05 09:16 | 45.20305 | -54.30483 | 37025 ft | 550 kts | 81° |
| 2026-05-05 09:16 | 45.21789 | -54.19827 | 37022 ft | 551 kts | 81° |
| 2026-05-05 09:17 | 45.23266 | -54.09131 | 37033 ft | 554 kts | 81° |
| 2026-05-05 09:17 | 45.24741 | -53.98385 | 37037 ft | 555 kts | 81° |
| 2026-05-05 09:18 | 45.26207 | -53.87630 | 37045 ft | 555 kts | 81° |
| 2026-05-05 09:18 | 45.27661 | -53.76882 | 37040 ft | 554 kts | 81° |
| 2026-05-05 09:19 | 45.29102 | -53.66148 | 37043 ft | 553 kts | 81° |
| 2026-05-05 09:19 | 45.30534 | -53.55394 | 37050 ft | 556 kts | 82° |
| 2026-05-05 09:20 | 45.31961 | -53.44594 | 37031 ft | 557 kts | 82° |
| 2026-05-05 09:20 | 45.33381 | -53.33776 | 37053 ft | 556 kts | 82° |
| 2026-05-05 09:21 | 45.34788 | -53.22970 | 37050 ft | 555 kts | 82° |
| 2026-05-05 09:21 | 45.36182 | -53.12177 | 37054 ft | 555 kts | 82° |
| 2026-05-05 09:22 | 45.37568 | -53.01362 | 37044 ft | 556 kts | 82° |
| 2026-05-05 09:22 | 45.38945 | -52.90526 | 37057 ft | 558 kts | 82° |
| 2026-05-05 09:23 | 45.40318 | -52.79650 | 37130 ft | 557 kts | 82° |
| 2026-05-05 09:23 | 45.40993 | -52.74270 | 37442 ft | 553 kts | 82° |
| 2026-05-05 09:23 | 45.41656 | -52.68971 | 37786 ft | 549 kts | 82° |
| 2026-05-05 09:23 | 45.42328 | -52.63569 | 38077 ft | 546 kts | 82° |
| 2026-05-05 09:24 | 45.42979 | -52.58318 | 38305 ft | 544 kts | 82° |
| 2026-05-05 09:24 | 45.43632 | -52.53021 | 38494 ft | 543 kts | 82° |
| 2026-05-05 09:24 | 45.44284 | -52.47715 | 38670 ft | 543 kts | 82° |
| 2026-05-05 09:24 | 45.44930 | -52.42432 | 38796 ft | 542 kts | 82° |
| 2026-05-05 09:25 | 45.45575 | -52.37134 | 38885 ft | 542 kts | 82° |
| 2026-05-05 09:25 | 45.46217 | -52.31847 | 39003 ft | 542 kts | 82° |
| 2026-05-05 09:25 | 45.46856 | -52.26558 | 39058 ft | 543 kts | 82° |
| 2026-05-05 09:26 | 45.48133 | -52.15934 | 39058 ft | 544 kts | 82° |
| 2026-05-05 09:26 | 45.49400 | -52.05319 | 39069 ft | 542 kts | 82° |
| 2026-05-05 09:27 | 45.51370 | -51.94939 | 39062 ft | 543 kts | 71° |
| 2026-05-05 09:27 | 45.53934 | -51.84792 | 39068 ft | 544 kts | 70° |
| 2026-05-05 09:28 | 45.56577 | -51.74685 | 39065 ft | 544 kts | 70° |
| 2026-05-05 09:28 | 45.59210 | -51.64558 | 39065 ft | 544 kts | 70° |
| 2026-05-05 09:29 | 45.61802 | -51.54481 | 39079 ft | 544 kts | 71° |
| 2026-05-05 09:29 | 45.64391 | -51.44341 | 39075 ft | 543 kts | 71° |
| 2026-05-05 09:30 | 45.66970 | -51.34196 | 39075 ft | 543 kts | 71° |
| 2026-05-05 09:30 | 45.69541 | -51.24036 | 39084 ft | 543 kts | 71° |
| 2026-05-05 09:31 | 45.72104 | -51.13867 | 39083 ft | 543 kts | 71° |
| 2026-05-05 09:31 | 45.74655 | -51.03703 | 39081 ft | 542 kts | 71° |
| 2026-05-05 09:32 | 45.77193 | -50.93545 | 39054 ft | 542 kts | 71° |
| 2026-05-05 09:32 | 45.79724 | -50.83367 | 39086 ft | 542 kts | 71° |
| 2026-05-05 09:33 | 45.82249 | -50.73171 | 39081 ft | 542 kts | 71° |
| 2026-05-05 09:33 | 45.84758 | -50.62988 | 39088 ft | 542 kts | 71° |
| 2026-05-05 09:34 | 45.87259 | -50.52797 | 39089 ft | 541 kts | 72° |
| 2026-05-05 09:34 | 45.89750 | -50.42600 | 39093 ft | 541 kts | 72° |
| 2026-05-05 09:35 | 45.92230 | -50.32399 | 39097 ft | 541 kts | 72° |
| 2026-05-05 09:35 | 45.95930 | -50.17096 | 39104 ft | 540 kts | 72° |
| 2026-05-05 09:36 | 45.98384 | -50.06887 | 39075 ft | 540 kts | 72° |
| 2026-05-05 09:36 | 46.00840 | -49.96661 | 39099 ft | 541 kts | 72° |
| 2026-05-05 09:37 | 46.03394 | -49.86466 | 39111 ft | 542 kts | 71° |
| 2026-05-05 09:37 | 46.05973 | -49.76279 | 39111 ft | 542 kts | 71° |
| 2026-05-05 09:38 | 46.08513 | -49.66148 | 39110 ft | 542 kts | 71° |
| 2026-05-05 09:38 | 46.11049 | -49.55938 | 39107 ft | 541 kts | 72° |
| 2026-05-05 09:39 | 46.13570 | -49.45725 | 39118 ft | 540 kts | 72° |
| 2026-05-05 09:39 | 46.16081 | -49.35507 | 39119 ft | 540 kts | 72° |
| 2026-05-05 09:40 | 46.18582 | -49.25288 | 39118 ft | 540 kts | 72° |
| 2026-05-05 09:40 | 46.21074 | -49.15058 | 39121 ft | 540 kts | 72° |
| 2026-05-05 09:41 | 46.23559 | -49.04811 | 39124 ft | 541 kts | 72° |
| 2026-05-05 09:41 | 46.26037 | -48.94546 | 39125 ft | 541 kts | 72° |
| 2026-05-05 09:42 | 46.28089 | -48.86009 | 39129 ft | 541 kts | 72° |
| 2026-05-05 09:42 | 46.30552 | -48.75717 | 39136 ft | 541 kts | 72° |
| 2026-05-05 09:43 | 46.33001 | -48.65438 | 39139 ft | 541 kts | 72° |
| 2026-05-05 09:43 | 46.35442 | -48.55146 | 39140 ft | 541 kts | 72° |
| 2026-05-05 09:44 | 46.37873 | -48.44848 | 39153 ft | 541 kts | 72° |
| 2026-05-05 09:44 | 46.40293 | -48.34545 | 39147 ft | 539 kts | 73° |
| 2026-05-05 09:45 | 46.42697 | -48.24262 | 39138 ft | 539 kts | 72° |
| 2026-05-05 09:45 | 46.45098 | -48.13946 | 39143 ft | 540 kts | 73° |
| 2026-05-05 09:46 | 46.47492 | -48.03608 | 39155 ft | 541 kts | 73° |
| 2026-05-05 09:46 | 46.49858 | -47.93347 | 39153 ft | 540 kts | 73° |
| 2026-05-05 09:47 | 46.52230 | -47.83007 | 39152 ft | 540 kts | 73° |
| 2026-05-05 09:47 | 46.54591 | -47.72663 | 39152 ft | 540 kts | 73° |
| 2026-05-05 09:48 | 46.56943 | -47.62313 | 39161 ft | 539 kts | 73° |
| 2026-05-05 09:48 | 46.59283 | -47.51963 | 39159 ft | 539 kts | 73° |
| 2026-05-05 09:49 | 46.61614 | -47.41603 | 39160 ft | 539 kts | 73° |
| 2026-05-05 09:49 | 46.63935 | -47.31239 | 39159 ft | 539 kts | 73° |
| 2026-05-05 09:50 | 46.66246 | -47.20869 | 39163 ft | 539 kts | 73° |
| 2026-05-05 09:50 | 46.68547 | -47.10491 | 39166 ft | 538 kts | 73° |
| 2026-05-05 09:51 | 46.70837 | -47.00115 | 39165 ft | 538 kts | 74° |
| 2026-05-05 09:51 | 46.73116 | -46.89731 | 39170 ft | 538 kts | 74° |
| 2026-05-05 09:52 | 46.75384 | -46.79351 | 39169 ft | 537 kts | 74° |
| 2026-05-05 09:52 | 46.77641 | -46.68969 | 39170 ft | 536 kts | 74° |
| 2026-05-05 09:53 | 46.79884 | -46.58597 | 39178 ft | 536 kts | 74° |
| 2026-05-05 09:53 | 46.82119 | -46.48209 | 39178 ft | 536 kts | 74° |
| 2026-05-05 09:54 | 46.84344 | -46.37818 | 39155 ft | 535 kts | 74° |
| 2026-05-05 09:54 | 46.86555 | -46.27444 | 39179 ft | 535 kts | 75° |
| 2026-05-05 09:55 | 46.88757 | -46.17052 | 39181 ft | 535 kts | 75° |
| 2026-05-05 09:55 | 46.90951 | -46.06648 | 39181 ft | 535 kts | 75° |
| 2026-05-05 09:56 | 46.93119 | -45.96314 | 39181 ft | 535 kts | 75° |
| 2026-05-05 09:56 | 46.95293 | -45.85901 | 39181 ft | 535 kts | 75° |
| 2026-05-05 09:57 | 46.97457 | -45.75479 | 39187 ft | 535 kts | 75° |
| 2026-05-05 09:57 | 46.99611 | -45.65055 | 39187 ft | 535 kts | 75° |
| 2026-05-05 09:58 | 47.01753 | -45.54628 | 39186 ft | 534 kts | 75° |
| 2026-05-05 09:58 | 47.03886 | -45.44199 | 39162 ft | 534 kts | 75° |
| 2026-05-05 09:59 | 47.06009 | -45.33758 | 39194 ft | 535 kts | 75° |
| 2026-05-05 09:59 | 47.08129 | -45.23278 | 39196 ft | 536 kts | 75° |
| 2026-05-05 10:00 | 47.10239 | -45.12792 | 39201 ft | 536 kts | 75° |
| 2026-05-05 10:00 | 47.12339 | -45.02301 | 39205 ft | 536 kts | 75° |
| 2026-05-05 10:01 | 47.14431 | -44.91795 | 39195 ft | 535 kts | 75° |
| 2026-05-05 10:01 | 47.16509 | -44.81299 | 39198 ft | 535 kts | 76° |
| 2026-05-05 10:02 | 47.18578 | -44.70793 | 39200 ft | 534 kts | 76° |
| 2026-05-05 10:02 | 47.20633 | -44.60303 | 39202 ft | 534 kts | 76° |
| 2026-05-05 10:03 | 47.22666 | -44.49865 | 39198 ft | 534 kts | 76° |
| 2026-05-05 10:03 | 47.24704 | -44.39346 | 39201 ft | 536 kts | 76° |
| 2026-05-05 10:04 | 47.26740 | -44.28779 | 39202 ft | 537 kts | 76° |
| 2026-05-05 10:04 | 47.28768 | -44.18197 | 39209 ft | 536 kts | 76° |
| 2026-05-05 10:05 | 47.30783 | -44.07626 | 39210 ft | 536 kts | 76° |
| 2026-05-05 10:05 | 47.32789 | -43.97037 | 39210 ft | 536 kts | 76° |
| 2026-05-05 10:06 | 47.34783 | -43.86456 | 39213 ft | 535 kts | 76° |
| 2026-05-05 10:06 | 47.36767 | -43.75869 | 39211 ft | 535 kts | 76° |
| 2026-05-05 10:07 | 47.38738 | -43.65289 | 39212 ft | 535 kts | 76° |
| 2026-05-05 10:07 | 47.40699 | -43.54700 | 39208 ft | 535 kts | 76° |
| 2026-05-05 10:08 | 47.42650 | -43.44110 | 39194 ft | 534 kts | 76° |
| 2026-05-05 10:08 | 47.44593 | -43.33497 | 39221 ft | 537 kts | 76° |
| 2026-05-05 10:09 | 47.46536 | -43.22822 | 39218 ft | 538 kts | 76° |
| 2026-05-05 10:09 | 47.48469 | -43.12148 | 39220 ft | 537 kts | 76° |
| 2026-05-05 10:10 | 47.50376 | -43.01552 | 39219 ft | 535 kts | 76° |
| 2026-05-05 10:10 | 47.52279 | -42.90917 | 39220 ft | 534 kts | 77° |
| 2026-05-05 10:11 | 47.54171 | -42.80280 | 39210 ft | 534 kts | 77° |
| 2026-05-05 10:11 | 47.56053 | -42.69633 | 39228 ft | 534 kts | 77° |
| 2026-05-05 10:12 | 47.57923 | -42.58993 | 39223 ft | 533 kts | 77° |
| 2026-05-05 10:12 | 47.59780 | -42.48361 | 39222 ft | 533 kts | 77° |
| 2026-05-05 10:13 | 47.61627 | -42.37724 | 39222 ft | 533 kts | 77° |
| 2026-05-05 10:13 | 47.63465 | -42.27073 | 39227 ft | 533 kts | 77° |
| 2026-05-05 10:14 | 47.65290 | -42.16434 | 39227 ft | 532 kts | 77° |
| 2026-05-05 10:14 | 47.67105 | -42.05790 | 39231 ft | 532 kts | 77° |
| 2026-05-05 10:15 | 47.68908 | -41.95155 | 39228 ft | 532 kts | 77° |
| 2026-05-05 10:15 | 47.70701 | -41.84507 | 39233 ft | 532 kts | 77° |
| 2026-05-05 10:16 | 47.72483 | -41.73863 | 39223 ft | 532 kts | 78° |
| 2026-05-05 10:16 | 47.74245 | -41.63269 | 39228 ft | 531 kts | 78° |
| 2026-05-05 10:17 | 47.76008 | -41.52607 | 39223 ft | 531 kts | 78° |
| 2026-05-05 10:17 | 47.77761 | -41.41932 | 39226 ft | 532 kts | 78° |
| 2026-05-05 10:18 | 47.79507 | -41.31239 | 39230 ft | 531 kts | 78° |
| 2026-05-05 10:18 | 47.81236 | -41.20580 | 39230 ft | 530 kts | 78° |
| 2026-05-05 10:19 | 47.82955 | -41.09913 | 39226 ft | 530 kts | 78° |
| 2026-05-05 10:19 | 47.84663 | -40.99247 | 39224 ft | 530 kts | 78° |
| 2026-05-05 10:20 | 47.86359 | -40.88589 | 39231 ft | 529 kts | 78° |
| 2026-05-05 10:20 | 47.88044 | -40.77931 | 39226 ft | 528 kts | 78° |
| 2026-05-05 10:21 | 47.89716 | -40.67284 | 39231 ft | 528 kts | 78° |
| 2026-05-05 10:21 | 47.91378 | -40.56633 | 39228 ft | 528 kts | 78° |
| 2026-05-05 10:22 | 47.93028 | -40.45982 | 39198 ft | 527 kts | 78° |
| 2026-05-05 10:22 | 47.94670 | -40.35317 | 39231 ft | 528 kts | 78° |
| 2026-05-05 10:23 | 47.96305 | -40.24627 | 39229 ft | 529 kts | 78° |
| 2026-05-05 10:23 | 47.97933 | -40.13918 | 39230 ft | 529 kts | 78° |
| 2026-05-05 10:24 | 47.99553 | -40.03212 | 39228 ft | 528 kts | 78° |
| 2026-05-05 10:24 | 48.01843 | -39.92789 | 39227 ft | 528 kts | 70° |
| 2026-05-05 10:25 | 48.04396 | -39.82512 | 39227 ft | 528 kts | 70° |
| 2026-05-05 10:25 | 48.06988 | -39.72244 | 39226 ft | 528 kts | 70° |
| 2026-05-05 10:26 | 48.09564 | -39.61963 | 39224 ft | 527 kts | 70° |
| 2026-05-05 10:26 | 48.12113 | -39.51696 | 39222 ft | 526 kts | 70° |
| 2026-05-05 10:27 | 48.14649 | -39.41420 | 39222 ft | 526 kts | 70° |
| 2026-05-05 10:27 | 48.17173 | -39.31141 | 39221 ft | 526 kts | 70° |
| 2026-05-05 10:28 | 48.19687 | -39.20859 | 39216 ft | 525 kts | 70° |
| 2026-05-05 10:28 | 48.22170 | -39.10658 | 39217 ft | 524 kts | 70° |
| 2026-05-05 10:29 | 48.24660 | -39.00379 | 39213 ft | 525 kts | 70° |
| 2026-05-05 10:29 | 48.27144 | -38.90078 | 39215 ft | 525 kts | 70° |
| 2026-05-05 10:30 | 48.29220 | -38.81431 | 39214 ft | 525 kts | 70° |
| 2026-05-05 10:30 | 48.31686 | -38.71114 | 39218 ft | 525 kts | 70° |
| 2026-05-05 10:31 | 48.34146 | -38.60777 | 39213 ft | 525 kts | 70° |
| 2026-05-05 10:31 | 48.36594 | -38.50439 | 39212 ft | 525 kts | 70° |
| 2026-05-05 10:32 | 48.39031 | -38.40103 | 39207 ft | 523 kts | 71° |
| 2026-05-05 10:32 | 48.41449 | -38.29792 | 39206 ft | 523 kts | 71° |
| 2026-05-05 10:33 | 48.43862 | -38.19459 | 39207 ft | 523 kts | 71° |
| 2026-05-05 10:33 | 48.46262 | -38.09128 | 39201 ft | 523 kts | 71° |
| 2026-05-05 10:34 | 48.48647 | -37.98813 | 39207 ft | 520 kts | 71° |
| 2026-05-05 10:34 | 48.51017 | -37.88515 | 39201 ft | 519 kts | 71° |
| 2026-05-05 10:35 | 48.53358 | -37.78295 | 39200 ft | 519 kts | 71° |
| 2026-05-05 10:35 | 48.55708 | -37.67984 | 39199 ft | 519 kts | 71° |
| 2026-05-05 10:36 | 48.58048 | -37.57666 | 39197 ft | 519 kts | 71° |
| 2026-05-05 10:36 | 48.60379 | -37.47339 | 39203 ft | 519 kts | 71° |
| 2026-05-05 10:37 | 48.62700 | -37.37003 | 39195 ft | 519 kts | 71° |
| 2026-05-05 10:37 | 48.65016 | -37.26648 | 39204 ft | 521 kts | 71° |
| 2026-05-05 10:38 | 48.67329 | -37.16246 | 39201 ft | 523 kts | 71° |
| 2026-05-05 10:38 | 48.69639 | -37.05805 | 39199 ft | 524 kts | 71° |
| 2026-05-05 10:39 | 48.71943 | -36.95344 | 39184 ft | 524 kts | 71° |
| 2026-05-05 10:39 | 48.74236 | -36.84875 | 39186 ft | 523 kts | 71° |
| 2026-05-05 10:40 | 48.76515 | -36.74421 | 39202 ft | 522 kts | 71° |
| 2026-05-05 10:40 | 48.78779 | -36.63983 | 39201 ft | 521 kts | 71° |
| 2026-05-05 10:41 | 48.81035 | -36.53527 | 39190 ft | 521 kts | 71° |
| 2026-05-05 10:41 | 48.83281 | -36.43067 | 39186 ft | 521 kts | 71° |
| 2026-05-05 10:42 | 48.86624 | -36.27394 | 39204 ft | 520 kts | 71° |
| 2026-05-05 10:43 | 48.88841 | -36.16934 | 39192 ft | 520 kts | 72° |
| 2026-05-05 10:43 | 48.91049 | -36.06461 | 39187 ft | 520 kts | 72° |
| 2026-05-05 10:44 | 48.93244 | -35.96000 | 39193 ft | 518 kts | 72° |
| 2026-05-05 10:44 | 48.95423 | -35.85555 | 39197 ft | 518 kts | 72° |
| 2026-05-05 10:45 | 48.97591 | -35.75114 | 39199 ft | 518 kts | 72° |
| 2026-05-05 10:45 | 48.99751 | -35.64652 | 39215 ft | 518 kts | 72° |
| 2026-05-05 10:46 | 49.01902 | -35.54181 | 39212 ft | 518 kts | 71° |
| 2026-05-05 10:46 | 49.04047 | -35.43688 | 39211 ft | 520 kts | 72° |
| 2026-05-05 10:47 | 49.06186 | -35.33164 | 39211 ft | 520 kts | 72° |
| 2026-05-05 10:47 | 49.08317 | -35.22627 | 39222 ft | 520 kts | 72° |
| 2026-05-05 10:48 | 49.10434 | -35.12096 | 39219 ft | 518 kts | 72° |
| 2026-05-05 10:48 | 49.12537 | -35.01582 | 39229 ft | 517 kts | 72° |
| 2026-05-05 10:49 | 49.14627 | -34.91075 | 39221 ft | 517 kts | 72° |
| 2026-05-05 10:49 | 49.16710 | -34.80551 | 39228 ft | 518 kts | 72° |
| 2026-05-05 10:50 | 49.18778 | -34.70038 | 39247 ft | 515 kts | 72° |
| 2026-05-05 10:50 | 49.20827 | -34.59569 | 39253 ft | 514 kts | 72° |
| 2026-05-05 10:51 | 49.22868 | -34.49086 | 39240 ft | 514 kts | 72° |
| 2026-05-05 10:51 | 49.24899 | -34.38596 | 39258 ft | 514 kts | 72° |
| 2026-05-05 10:52 | 49.26916 | -34.28122 | 39258 ft | 511 kts | 72° |
| 2026-05-05 10:52 | 49.28912 | -34.17693 | 39255 ft | 510 kts | 72° |
| 2026-05-05 10:53 | 49.30887 | -34.07323 | 39252 ft | 510 kts | 72° |
| 2026-05-05 10:53 | 49.32866 | -33.96873 | 39265 ft | 510 kts | 72° |
| 2026-05-05 10:54 | 49.34842 | -33.86380 | 39271 ft | 507 kts | 73° |
| 2026-05-05 10:54 | 49.36768 | -33.76094 | 39265 ft | 505 kts | 72° |
| 2026-05-05 10:55 | 49.38711 | -33.65659 | 39274 ft | 505 kts | 72° |
| 2026-05-05 10:55 | 49.40622 | -33.55346 | 39279 ft | 506 kts | 72° |
| 2026-05-05 10:56 | 49.42537 | -33.44947 | 39278 ft | 506 kts | 72° |
| 2026-05-05 10:56 | 49.44441 | -33.34547 | 39286 ft | 506 kts | 73° |
| 2026-05-05 10:57 | 49.46338 | -33.24127 | 39291 ft | 506 kts | 73° |
| 2026-05-05 10:57 | 49.48224 | -33.13712 | 39290 ft | 506 kts | 73° |
| 2026-05-05 10:58 | 49.50102 | -33.03281 | 39292 ft | 505 kts | 73° |
| 2026-05-05 10:58 | 49.51964 | -32.92871 | 39281 ft | 504 kts | 73° |
| 2026-05-05 10:59 | 49.53816 | -32.82467 | 39296 ft | 504 kts | 73° |
| 2026-05-05 10:59 | 49.55660 | -32.72043 | 39307 ft | 504 kts | 73° |
| 2026-05-05 11:00 | 49.57493 | -32.61618 | 39298 ft | 503 kts | 73° |
| 2026-05-05 11:00 | 49.59312 | -32.51213 | 39302 ft | 503 kts | 73° |
| 2026-05-05 11:01 | 49.61121 | -32.40806 | 39308 ft | 502 kts | 73° |
| 2026-05-05 11:01 | 49.62921 | -32.30390 | 39306 ft | 502 kts | 73° |
| 2026-05-05 11:02 | 49.64709 | -32.19980 | 39316 ft | 502 kts | 73° |
| 2026-05-05 11:02 | 49.66485 | -32.09579 | 39321 ft | 500 kts | 73° |
| 2026-05-05 11:03 | 49.68248 | -31.99191 | 39316 ft | 500 kts | 73° |
| 2026-05-05 11:03 | 49.70003 | -31.88790 | 39318 ft | 500 kts | 73° |
| 2026-05-05 11:04 | 49.71751 | -31.78365 | 39332 ft | 501 kts | 73° |
| 2026-05-05 11:04 | 49.73485 | -31.67958 | 39330 ft | 499 kts | 73° |
| 2026-05-05 11:05 | 49.75205 | -31.57572 | 39326 ft | 499 kts | 73° |
| 2026-05-05 11:05 | 49.76917 | -31.47180 | 39330 ft | 499 kts | 73° |
| 2026-05-05 11:06 | 49.78608 | -31.36847 | 39334 ft | 499 kts | 73° |
| 2026-05-05 11:06 | 49.80297 | -31.26460 | 39335 ft | 496 kts | 73° |
| 2026-05-05 11:07 | 49.81971 | -31.16101 | 39334 ft | 495 kts | 73° |
| 2026-05-05 11:07 | 49.83633 | -31.05757 | 39344 ft | 495 kts | 73° |
| 2026-05-05 11:08 | 49.85287 | -30.95397 | 39345 ft | 495 kts | 73° |
| 2026-05-05 11:08 | 49.86933 | -30.85026 | 39350 ft | 494 kts | 73° |
| 2026-05-05 11:09 | 49.88560 | -30.74696 | 39346 ft | 493 kts | 73° |
| 2026-05-05 11:09 | 49.90179 | -30.64362 | 39350 ft | 493 kts | 73° |
| 2026-05-05 11:10 | 49.91788 | -30.54022 | 39347 ft | 493 kts | 73° |
| 2026-05-05 11:10 | 49.93388 | -30.43680 | 39363 ft | 493 kts | 73° |
| 2026-05-05 11:11 | 49.94977 | -30.33338 | 39358 ft | 492 kts | 73° |
| 2026-05-05 11:11 | 49.96557 | -30.22989 | 39357 ft | 492 kts | 73° |
| 2026-05-05 11:12 | 49.98127 | -30.12641 | 39360 ft | 492 kts | 73° |
| 2026-05-05 11:12 | 49.99426 | -30.04027 | 39360 ft | 492 kts | 73° |
| 2026-05-05 11:13 | 50.01551 | -29.93983 | 39360 ft | 487 kts | 65° |
| 2026-05-05 11:13 | 50.04384 | -29.82573 | 39360 ft | 486 kts | 64° |
| 2026-05-05 11:14 | 50.06859 | -29.72783 | 39360 ft | 486 kts | 64° |
| 2026-05-05 11:14 | 50.08922 | -29.64560 | 39360 ft | 487 kts | 64° |
| 2026-05-05 11:15 | 50.11367 | -29.54734 | 39362 ft | 486 kts | 64° |
| 2026-05-05 11:15 | 50.13792 | -29.44924 | 39363 ft | 485 kts | 64° |
| 2026-05-05 11:16 | 50.16207 | -29.35114 | 39360 ft | 485 kts | 64° |
| 2026-05-05 11:16 | 50.18616 | -29.25284 | 39364 ft | 485 kts | 64° |
| 2026-05-05 11:17 | 50.21017 | -29.15449 | 39361 ft | 485 kts | 64° |
| 2026-05-05 11:17 | 50.23392 | -29.05670 | 39361 ft | 485 kts | 64° |
| 2026-05-05 11:18 | 50.25776 | -28.95813 | 39364 ft | 485 kts | 64° |
| 2026-05-05 11:18 | 50.28153 | -28.85943 | 39361 ft | 485 kts | 64° |
| 2026-05-05 11:19 | 50.30519 | -28.76067 | 39372 ft | 485 kts | 64° |
| 2026-05-05 11:19 | 50.32882 | -28.66164 | 39364 ft | 486 kts | 64° |
| 2026-05-05 11:20 | 50.35236 | -28.56256 | 39356 ft | 486 kts | 64° |
| 2026-05-05 11:20 | 50.37582 | -28.46330 | 39361 ft | 486 kts | 64° |
| 2026-05-05 11:21 | 50.39921 | -28.36393 | 39383 ft | 486 kts | 64° |
| 2026-05-05 11:21 | 50.42252 | -28.26441 | 39361 ft | 486 kts | 64° |
| 2026-05-05 11:22 | 50.44574 | -28.16482 | 39361 ft | 486 kts | 64° |
| 2026-05-05 11:22 | 50.46890 | -28.06504 | 39360 ft | 486 kts | 64° |
| 2026-05-05 11:23 | 50.49198 | -27.96511 | 39361 ft | 486 kts | 64° |
| 2026-05-05 11:23 | 50.51495 | -27.86518 | 39360 ft | 486 kts | 64° |
| 2026-05-05 11:24 | 50.53783 | -27.76523 | 39361 ft | 486 kts | 64° |
| 2026-05-05 11:24 | 50.56061 | -27.66522 | 39360 ft | 486 kts | 65° |
| 2026-05-05 11:25 | 50.58329 | -27.56517 | 39358 ft | 486 kts | 65° |
| 2026-05-05 11:25 | 50.60575 | -27.46564 | 39361 ft | 486 kts | 65° |
| 2026-05-05 11:26 | 50.62825 | -27.36541 | 39358 ft | 486 kts | 65° |
| 2026-05-05 11:26 | 50.65068 | -27.26504 | 39361 ft | 486 kts | 65° |
| 2026-05-05 11:27 | 50.67302 | -27.16462 | 39359 ft | 486 kts | 65° |
| 2026-05-05 11:27 | 50.69527 | -27.06408 | 39360 ft | 485 kts | 65° |
| 2026-05-05 11:28 | 50.71743 | -26.96345 | 39361 ft | 485 kts | 65° |
| 2026-05-05 11:28 | 50.73951 | -26.86274 | 39359 ft | 485 kts | 65° |
| 2026-05-05 11:29 | 50.76150 | -26.76193 | 39362 ft | 485 kts | 65° |
| 2026-05-05 11:29 | 50.78341 | -26.66100 | 39367 ft | 485 kts | 65° |
| 2026-05-05 11:30 | 50.80521 | -26.56009 | 39365 ft | 485 kts | 66° |
| 2026-05-05 11:30 | 50.82693 | -26.45901 | 39365 ft | 485 kts | 66° |
| 2026-05-05 11:31 | 50.84857 | -26.35784 | 39368 ft | 485 kts | 66° |
| 2026-05-05 11:31 | 50.87011 | -26.25664 | 39393 ft | 485 kts | 66° |
| 2026-05-05 11:32 | 50.89157 | -26.15531 | 39369 ft | 485 kts | 66° |
| 2026-05-05 11:32 | 50.91295 | -26.05383 | 39367 ft | 485 kts | 66° |
| 2026-05-05 11:33 | 50.93423 | -25.95230 | 39368 ft | 485 kts | 66° |
| 2026-05-05 11:33 | 50.95543 | -25.85062 | 39369 ft | 486 kts | 66° |
| 2026-05-05 11:34 | 50.97654 | -25.74889 | 39372 ft | 486 kts | 67° |
| 2026-05-05 11:34 | 50.99758 | -25.64700 | 39371 ft | 486 kts | 67° |
| 2026-05-05 11:35 | 51.01852 | -25.54503 | 39366 ft | 486 kts | 67° |
| 2026-05-05 11:35 | 51.03923 | -25.44371 | 39368 ft | 486 kts | 67° |
| 2026-05-05 11:36 | 51.05999 | -25.34155 | 39367 ft | 485 kts | 68° |
| 2026-05-05 11:36 | 51.08066 | -25.23937 | 39363 ft | 485 kts | 68° |
| 2026-05-05 11:37 | 51.10122 | -25.13716 | 39362 ft | 485 kts | 68° |
| 2026-05-05 11:37 | 51.12172 | -25.03474 | 39360 ft | 485 kts | 68° |
| 2026-05-05 11:38 | 51.14212 | -24.93228 | 39360 ft | 486 kts | 68° |
| 2026-05-05 11:38 | 51.16243 | -24.82973 | 39360 ft | 485 kts | 68° |
| 2026-05-05 11:39 | 51.18264 | -24.72714 | 39360 ft | 486 kts | 68° |
| 2026-05-05 11:39 | 51.20278 | -24.62435 | 39360 ft | 486 kts | 68° |
| 2026-05-05 11:40 | 51.22283 | -24.52150 | 39374 ft | 486 kts | 68° |
| 2026-05-05 11:40 | 51.24279 | -24.41853 | 39359 ft | 485 kts | 69° |
| 2026-05-05 11:41 | 51.26265 | -24.31553 | 39355 ft | 485 kts | 69° |
| 2026-05-05 11:41 | 51.28241 | -24.21245 | 39360 ft | 486 kts | 69° |
| 2026-05-05 11:42 | 51.30211 | -24.10920 | 39354 ft | 486 kts | 69° |
| 2026-05-05 11:42 | 51.32170 | -24.00591 | 39359 ft | 485 kts | 69° |
| 2026-05-05 11:43 | 51.34119 | -23.90259 | 39350 ft | 485 kts | 69° |
| 2026-05-05 11:43 | 51.36059 | -23.79916 | 39346 ft | 485 kts | 69° |
| 2026-05-05 11:44 | 51.37989 | -23.69568 | 39348 ft | 485 kts | 69° |
| 2026-05-05 11:44 | 51.39900 | -23.59272 | 39358 ft | 486 kts | 70° |
| 2026-05-05 11:45 | 51.41813 | -23.48899 | 39349 ft | 485 kts | 70° |
| 2026-05-05 11:45 | 51.43715 | -23.38531 | 39344 ft | 485 kts | 70° |
| 2026-05-05 11:46 | 51.45609 | -23.28148 | 39347 ft | 485 kts | 70° |
| 2026-05-05 11:46 | 51.47494 | -23.17757 | 39348 ft | 485 kts | 70° |
| 2026-05-05 11:47 | 51.49370 | -23.07358 | 39346 ft | 485 kts | 70° |
| 2026-05-05 11:47 | 51.51235 | -22.96954 | 39347 ft | 485 kts | 70° |
| 2026-05-05 11:48 | 51.54017 | -22.81328 | 39344 ft | 485 kts | 71° |
| 2026-05-05 11:48 | 51.55860 | -22.70902 | 39351 ft | 485 kts | 71° |
| 2026-05-05 11:49 | 51.57692 | -22.60474 | 39340 ft | 485 kts | 71° |
| 2026-05-05 11:49 | 51.59515 | -22.50042 | 39335 ft | 485 kts | 71° |
| 2026-05-05 11:50 | 51.61330 | -22.39592 | 39334 ft | 485 kts | 71° |
| 2026-05-05 11:50 | 51.63135 | -22.29133 | 39331 ft | 485 kts | 71° |
| 2026-05-05 11:51 | 51.64930 | -22.18673 | 39333 ft | 485 kts | 71° |
| 2026-05-05 11:51 | 51.66719 | -22.08188 | 39332 ft | 485 kts | 71° |
| 2026-05-05 11:52 | 51.68496 | -21.97708 | 39333 ft | 485 kts | 71° |
| 2026-05-05 11:52 | 51.70265 | -21.87211 | 39333 ft | 485 kts | 72° |
| 2026-05-05 11:53 | 51.72024 | -21.76712 | 39335 ft | 485 kts | 72° |
| 2026-05-05 11:53 | 51.73763 | -21.66265 | 39331 ft | 485 kts | 72° |
| 2026-05-05 11:54 | 51.75503 | -21.55753 | 39329 ft | 485 kts | 72° |
| 2026-05-05 11:54 | 51.77234 | -21.45226 | 39326 ft | 485 kts | 72° |
| 2026-05-05 11:55 | 51.78956 | -21.34692 | 39340 ft | 485 kts | 72° |
| 2026-05-05 11:55 | 51.80668 | -21.24148 | 39323 ft | 485 kts | 72° |
| 2026-05-05 11:56 | 51.82373 | -21.13589 | 39316 ft | 486 kts | 72° |
| 2026-05-05 11:56 | 51.84068 | -21.03019 | 39317 ft | 485 kts | 73° |
| 2026-05-05 11:57 | 51.85752 | -20.92450 | 39322 ft | 485 kts | 73° |
| 2026-05-05 11:57 | 51.87430 | -20.81857 | 39314 ft | 486 kts | 73° |
| 2026-05-05 11:58 | 51.89097 | -20.71263 | 39315 ft | 486 kts | 73° |
| 2026-05-05 11:58 | 51.90757 | -20.60645 | 39318 ft | 486 kts | 73° |
| 2026-05-05 11:59 | 51.92127 | -20.51826 | 39315 ft | 486 kts | 73° |
| 2026-05-05 11:59 | 51.93769 | -20.41198 | 39315 ft | 486 kts | 73° |
| 2026-05-05 12:00 | 51.95664 | -20.28840 | 39318 ft | 486 kts | 73° |
| 2026-05-05 12:00 | 51.97023 | -20.19922 | 39316 ft | 486 kts | 73° |
| 2026-05-05 12:01 | 51.98637 | -20.09266 | 39314 ft | 486 kts | 73° |
| 2026-05-05 12:01 | 51.99936 | -19.98571 | 39305 ft | 489 kts | 84° |
| 2026-05-05 12:02 | 52.00327 | -19.87544 | 39304 ft | 490 kts | 86° |
| 2026-05-05 12:02 | 52.00541 | -19.76496 | 39303 ft | 490 kts | 86° |
| 2026-05-05 12:03 | 52.00721 | -19.65447 | 39301 ft | 490 kts | 86° |
| 2026-05-05 12:03 | 52.00905 | -19.54398 | 39299 ft | 490 kts | 86° |
| 2026-05-05 12:04 | 52.01090 | -19.43355 | 39313 ft | 490 kts | 86° |
| 2026-05-05 12:04 | 52.01266 | -19.32309 | 39295 ft | 489 kts | 86° |
| 2026-05-05 12:05 | 52.01432 | -19.21270 | 39295 ft | 489 kts | 86° |
| 2026-05-05 12:05 | 52.01588 | -19.10230 | 39292 ft | 489 kts | 87° |
| 2026-05-05 12:06 | 52.01732 | -18.99193 | 39290 ft | 489 kts | 87° |
| 2026-05-05 12:06 | 52.01866 | -18.88158 | 39292 ft | 489 kts | 87° |
| 2026-05-05 12:07 | 52.01990 | -18.77119 | 39289 ft | 489 kts | 87° |
| 2026-05-05 12:07 | 52.02104 | -18.66074 | 39287 ft | 489 kts | 87° |
| 2026-05-05 12:08 | 52.02207 | -18.55041 | 39287 ft | 489 kts | 87° |
| 2026-05-05 12:08 | 52.02300 | -18.44005 | 39284 ft | 489 kts | 87° |
| 2026-05-05 12:09 | 52.02383 | -18.32961 | 39283 ft | 489 kts | 88° |
| 2026-05-05 12:09 | 52.02455 | -18.21911 | 39272 ft | 489 kts | 88° |
| 2026-05-05 12:10 | 52.02517 | -18.10865 | 39275 ft | 489 kts | 88° |
| 2026-05-05 12:10 | 52.02569 | -17.99826 | 39274 ft | 489 kts | 88° |
| 2026-05-05 12:11 | 52.02610 | -17.88833 | 39274 ft | 489 kts | 88° |
| 2026-05-05 12:11 | 52.02642 | -17.77801 | 39267 ft | 489 kts | 88° |
| 2026-05-05 12:12 | 52.02662 | -17.66740 | 39269 ft | 489 kts | 88° |
| 2026-05-05 12:12 | 52.02673 | -17.55700 | 39268 ft | 489 kts | 88° |
| 2026-05-05 12:13 | 52.02673 | -17.44644 | 39262 ft | 489 kts | 88° |
| 2026-05-05 12:13 | 52.02663 | -17.33602 | 39265 ft | 489 kts | 88° |
| 2026-05-05 12:14 | 52.02642 | -17.22557 | 39260 ft | 489 kts | 89° |
| 2026-05-05 12:14 | 52.02611 | -17.11527 | 39260 ft | 489 kts | 89° |
| 2026-05-05 12:15 | 52.02570 | -17.00488 | 39252 ft | 489 kts | 89° |
| 2026-05-05 12:15 | 52.02519 | -16.89448 | 39252 ft | 489 kts | 89° |
| 2026-05-05 12:16 | 52.02457 | -16.78422 | 39252 ft | 488 kts | 89° |
| 2026-05-05 12:16 | 52.02385 | -16.67412 | 39246 ft | 488 kts | 89° |
| 2026-05-05 12:17 | 52.02303 | -16.56390 | 39246 ft | 488 kts | 89° |
| 2026-05-05 12:17 | 52.02211 | -16.45385 | 39241 ft | 488 kts | 89° |
| 2026-05-05 12:18 | 52.02108 | -16.34377 | 39250 ft | 488 kts | 89° |
| 2026-05-05 12:18 | 52.01995 | -16.23377 | 39241 ft | 487 kts | 90° |
| 2026-05-05 12:19 | 52.01872 | -16.12388 | 39241 ft | 487 kts | 90° |
| 2026-05-05 12:19 | 52.01739 | -16.01411 | 39238 ft | 487 kts | 90° |
| 2026-05-05 12:20 | 52.01596 | -15.90432 | 39236 ft | 487 kts | 90° |
| 2026-05-05 12:20 | 52.01443 | -15.79511 | 39233 ft | 486 kts | 90° |
| 2026-05-05 12:21 | 52.01280 | -15.68550 | 39233 ft | 485 kts | 90° |
| 2026-05-05 12:21 | 52.01106 | -15.57607 | 39227 ft | 485 kts | 90° |
| 2026-05-05 12:22 | 52.00923 | -15.46662 | 39227 ft | 485 kts | 90° |
| 2026-05-05 12:22 | 52.00730 | -15.35723 | 39225 ft | 485 kts | 90° |
| 2026-05-05 12:23 | 52.00526 | -15.24783 | 39226 ft | 485 kts | 90° |
| 2026-05-05 12:23 | 52.00312 | -15.13848 | 39222 ft | 486 kts | 90° |
| 2026-05-05 12:24 | 52.00087 | -15.02809 | 39220 ft | 492 kts | 91° |
| 2026-05-05 12:24 | 51.99945 | -14.91697 | 39225 ft | 492 kts | 88° |
| 2026-05-05 12:25 | 52.00022 | -14.80592 | 39226 ft | 492 kts | 88° |
| 2026-05-05 12:25 | 52.00101 | -14.69495 | 39219 ft | 492 kts | 88° |
| 2026-05-05 12:26 | 52.00134 | -14.58412 | 39216 ft | 492 kts | 89° |
| 2026-05-05 12:26 | 52.00137 | -14.47315 | 39217 ft | 492 kts | 89° |
| 2026-05-05 12:27 | 52.00127 | -14.36217 | 39214 ft | 492 kts | 89° |
| 2026-05-05 12:27 | 52.00108 | -14.25118 | 39214 ft | 491 kts | 89° |
| 2026-05-05 12:28 | 52.00079 | -14.14033 | 39208 ft | 491 kts | 89° |
| 2026-05-05 12:28 | 52.00040 | -14.02935 | 39208 ft | 491 kts | 89° |
| 2026-05-05 12:29 | 52.00153 | -13.91937 | 39207 ft | 491 kts | 85° |
| 2026-05-05 12:29 | 52.00663 | -13.80901 | 39205 ft | 490 kts | 84° |
| 2026-05-05 12:30 | 52.01188 | -13.69881 | 39204 ft | 490 kts | 84° |
| 2026-05-05 12:30 | 52.01640 | -13.58852 | 39201 ft | 490 kts | 85° |
| 2026-05-05 12:31 | 52.02049 | -13.47818 | 39197 ft | 490 kts | 85° |
| 2026-05-05 12:31 | 52.02440 | -13.36778 | 39195 ft | 490 kts | 85° |
| 2026-05-05 12:32 | 52.02823 | -13.25738 | 39195 ft | 489 kts | 85° |
| 2026-05-05 12:32 | 52.03197 | -13.14728 | 39192 ft | 488 kts | 85° |
| 2026-05-05 12:33 | 52.03561 | -13.03719 | 39196 ft | 488 kts | 85° |
| 2026-05-05 12:33 | 52.03914 | -12.92716 | 39184 ft | 488 kts | 86° |
| 2026-05-05 12:34 | 52.04258 | -12.81719 | 39187 ft | 488 kts | 86° |
| 2026-05-05 12:34 | 52.04590 | -12.70725 | 39184 ft | 487 kts | 86° |
| 2026-05-05 12:35 | 52.04912 | -12.59746 | 39181 ft | 487 kts | 86° |
| 2026-05-05 12:35 | 52.05223 | -12.48768 | 39181 ft | 487 kts | 86° |
| 2026-05-05 12:36 | 52.05525 | -12.37777 | 39176 ft | 487 kts | 86° |
| 2026-05-05 12:36 | 52.05816 | -12.26787 | 39176 ft | 487 kts | 86° |
| 2026-05-05 12:37 | 52.06098 | -12.15784 | 39173 ft | 488 kts | 86° |
| 2026-05-05 12:37 | 52.06368 | -12.04840 | 39172 ft | 487 kts | 86° |
| 2026-05-05 12:38 | 52.06629 | -11.93835 | 39167 ft | 487 kts | 86° |
| 2026-05-05 12:38 | 52.06880 | -11.82821 | 39160 ft | 488 kts | 87° |
| 2026-05-05 12:39 | 52.07120 | -11.71818 | 39160 ft | 487 kts | 87° |
| 2026-05-05 12:39 | 52.07350 | -11.60814 | 39160 ft | 487 kts | 87° |
| 2026-05-05 12:40 | 52.07570 | -11.49820 | 39161 ft | 487 kts | 87° |
| 2026-05-05 12:40 | 52.07779 | -11.38807 | 39154 ft | 487 kts | 87° |
| 2026-05-05 12:41 | 52.07979 | -11.27804 | 39156 ft | 486 kts | 88° |
| 2026-05-05 12:41 | 52.08167 | -11.16842 | 39149 ft | 485 kts | 88° |
| 2026-05-05 12:42 | 52.08345 | -11.05883 | 39149 ft | 485 kts | 88° |
| 2026-05-05 12:42 | 52.08513 | -10.94931 | 39146 ft | 485 kts | 88° |
| 2026-05-05 12:43 | 52.08671 | -10.83978 | 39144 ft | 485 kts | 88° |
| 2026-05-05 12:43 | 52.08818 | -10.73025 | 39144 ft | 484 kts | 88° |
| 2026-05-05 12:44 | 52.08955 | -10.62082 | 39138 ft | 484 kts | 88° |
| 2026-05-05 12:44 | 52.09083 | -10.51138 | 39137 ft | 484 kts | 88° |
| 2026-05-05 12:45 | 52.09200 | -10.40191 | 39132 ft | 484 kts | 88° |
| 2026-05-05 12:45 | 52.09307 | -10.29239 | 39132 ft | 484 kts | 88° |
| 2026-05-05 12:46 | 52.09403 | -10.18285 | 39129 ft | 484 kts | 88° |
| 2026-05-05 12:46 | 52.09476 | -10.09187 | 39130 ft | 484 kts | 88° |
| 2026-05-05 12:47 | 52.09554 | -9.98242 | 39123 ft | 484 kts | 88° |
| 2026-05-05 12:47 | 52.09622 | -9.87315 | 39121 ft | 483 kts | 89° |
| 2026-05-05 12:48 | 52.09680 | -9.76402 | 39109 ft | 483 kts | 89° |
| 2026-05-05 12:48 | 52.09727 | -9.65483 | 39104 ft | 483 kts | 89° |
| 2026-05-05 12:49 | 52.09765 | -9.54572 | 39102 ft | 483 kts | 89° |
| 2026-05-05 12:49 | 52.09793 | -9.43649 | 39103 ft | 483 kts | 89° |
| 2026-05-05 12:50 | 52.09810 | -9.32750 | 39116 ft | 483 kts | 89° |
| 2026-05-05 12:50 | 52.09817 | -9.21828 | 39113 ft | 483 kts | 89° |
| 2026-05-05 12:51 | 52.09815 | -9.10907 | 39110 ft | 483 kts | 89° |
| 2026-05-05 12:51 | 52.09802 | -8.99997 | 39110 ft | 483 kts | 89° |
| 2026-05-05 12:52 | 52.09779 | -8.89085 | 39107 ft | 483 kts | 89° |
| 2026-05-05 12:52 | 52.09746 | -8.78171 | 39106 ft | 482 kts | 89° |
| 2026-05-05 12:53 | 52.09703 | -8.67251 | 39107 ft | 483 kts | 89° |
| 2026-05-05 12:53 | 52.09650 | -8.56344 | 39098 ft | 483 kts | 90° |
| 2026-05-05 12:54 | 52.09551 | -8.39979 | 39097 ft | 482 kts | 90° |
| 2026-05-05 12:55 | 52.09473 | -8.29082 | 39095 ft | 482 kts | 90° |
| 2026-05-05 12:55 | 52.09385 | -8.18190 | 39089 ft | 481 kts | 90° |
| 2026-05-05 12:56 | 52.09287 | -8.07380 | 39089 ft | 481 kts | 90° |
| 2026-05-05 12:56 | 52.09180 | -7.96500 | 39085 ft | 481 kts | 90° |
| 2026-05-05 12:57 | 52.09061 | -7.85627 | 39088 ft | 481 kts | 90° |
| 2026-05-05 12:57 | 52.08933 | -7.74730 | 39084 ft | 482 kts | 90° |
| 2026-05-05 12:58 | 52.08795 | -7.63832 | 39085 ft | 482 kts | 90° |
| 2026-05-05 12:58 | 52.08646 | -7.52948 | 39084 ft | 482 kts | 90° |
| 2026-05-05 12:59 | 52.08488 | -7.42049 | 39091 ft | 482 kts | 90° |
| 2026-05-05 12:59 | 52.08320 | -7.31159 | 39095 ft | 481 kts | 91° |
| 2026-05-05 13:00 | 52.08049 | -7.14868 | 39100 ft | 480 kts | 90° |
| 2026-05-05 13:01 | 52.07653 | -6.93138 | 39098 ft | 480 kts | 91° |
| 2026-05-05 13:01 | 52.07441 | -6.82311 | 39096 ft | 479 kts | 91° |
| 2026-05-05 13:02 | 52.07218 | -6.71477 | 39079 ft | 479 kts | 91° |
| 2026-05-05 13:02 | 52.06986 | -6.60645 | 39082 ft | 479 kts | 91° |
| 2026-05-05 13:03 | 52.06744 | -6.49831 | 39073 ft | 479 kts | 91° |
| 2026-05-05 13:03 | 52.06492 | -6.39015 | 39080 ft | 479 kts | 91° |
| 2026-05-05 13:04 | 52.06230 | -6.28179 | 39066 ft | 480 kts | 91° |
| 2026-05-05 13:04 | 52.05957 | -6.17324 | 39071 ft | 481 kts | 91° |
| 2026-05-05 13:05 | 52.05614 | -6.06475 | 39076 ft | 481 kts | 96° |
| 2026-05-05 13:05 | 52.04224 | -5.95848 | 39069 ft | 481 kts | 104° |
| 2026-05-05 13:06 | 52.02457 | -5.85347 | 39070 ft | 482 kts | 105° |
| 2026-05-05 13:06 | 52.00621 | -5.74891 | 39065 ft | 483 kts | 105° |
| 2026-05-05 13:07 | 51.98782 | -5.64409 | 39072 ft | 482 kts | 105° |
| 2026-05-05 13:07 | 51.96951 | -5.53944 | 39065 ft | 483 kts | 105° |
| 2026-05-05 13:08 | 51.95116 | -5.43482 | 39060 ft | 482 kts | 105° |
| 2026-05-05 13:08 | 51.93272 | -5.33033 | 39051 ft | 482 kts | 105° |
| 2026-05-05 13:09 | 51.91506 | -5.22558 | 39061 ft | 482 kts | 101° |
| 2026-05-05 13:09 | 51.90182 | -5.11914 | 39046 ft | 482 kts | 100° |
| 2026-05-05 13:10 | 51.88937 | -5.01251 | 39048 ft | 482 kts | 100° |
| 2026-05-05 13:10 | 51.87694 | -4.90598 | 39045 ft | 482 kts | 100° |
| 2026-05-05 13:11 | 51.86434 | -4.79954 | 39041 ft | 481 kts | 100° |
| 2026-05-05 13:11 | 51.85162 | -4.69310 | 39038 ft | 481 kts | 100° |
| 2026-05-05 13:12 | 51.83876 | -4.58687 | 39027 ft | 482 kts | 101° |
| 2026-05-05 13:12 | 51.82580 | -4.48082 | 39029 ft | 481 kts | 101° |
| 2026-05-05 13:13 | 51.81283 | -4.37539 | 39019 ft | 481 kts | 101° |
| 2026-05-05 13:13 | 51.79961 | -4.26863 | 39014 ft | 482 kts | 101° |
| 2026-05-05 13:14 | 51.78647 | -4.16337 | 39014 ft | 482 kts | 101° |
| 2026-05-05 13:14 | 51.77314 | -4.05741 | 39015 ft | 481 kts | 101° |
| 2026-05-05 13:15 | 51.75972 | -3.95153 | 39009 ft | 481 kts | 101° |
| 2026-05-05 13:15 | 51.74623 | -3.84577 | 39007 ft | 482 kts | 102° |
| 2026-05-05 13:16 | 51.73262 | -3.74002 | 38997 ft | 480 kts | 102° |
| 2026-05-05 13:16 | 51.71892 | -3.63455 | 39001 ft | 480 kts | 102° |
| 2026-05-05 13:17 | 51.70814 | -3.52845 | 39016 ft | 480 kts | 96° |
| 2026-05-05 13:17 | 51.70139 | -3.42147 | 39016 ft | 480 kts | 95° |
| 2026-05-05 13:18 | 51.69519 | -3.31412 | 39005 ft | 480 kts | 95° |
| 2026-05-05 13:18 | 51.68892 | -3.20697 | 39002 ft | 481 kts | 95° |
| 2026-05-05 13:19 | 51.68245 | -3.09974 | 38994 ft | 481 kts | 96° |
| 2026-05-05 13:19 | 51.67585 | -2.99267 | 38987 ft | 481 kts | 96° |
| 2026-05-05 13:20 | 51.66913 | -2.88546 | 38989 ft | 481 kts | 96° |
| 2026-05-05 13:20 | 51.66031 | -2.74694 | 39005 ft | 480 kts | 96° |
| 2026-05-05 13:21 | 51.64636 | -2.53308 | 38995 ft | 480 kts | 96° |
| 2026-05-05 13:21 | 51.63205 | -2.31945 | 38998 ft | 480 kts | 96° |
| 2026-05-05 13:22 | 51.61731 | -2.10581 | 38993 ft | 480 kts | 96° |
| 2026-05-05 13:22 | 51.60979 | -1.99897 | 38992 ft | 481 kts | 97° |